Harmony G — SX8625 — position and weather

sailwx.info

Track history (hours):
 
Tides and Currents Weather Stations Pressure Air Temp Water Temp Dewpoint Dewpoint Depression Visibility Wind Speed Wind Dir Waves Ship Positions

Harmony G

Last reported at 2017-Sep-18 17:54 UTC. Time now 2017-Sep-19 11:50 UTC.
Position N 35°27' E 024°24'.

Length 53 m; draft 2.8 m.

Type: Passenger vessel. MMSI: 239780000.

Date/timePositionNaut miles runAvg speedWind from/ knotsBaromVisibWave heightAir tempDewpointWater temp
2017-Sep-18 17:54N 35°27' E 024°24'4 9.1
2017-Sep-18 17:30N 35°24' E 024°28'2 4.5
2017-Sep-18 17:00N 35°22' E 024°29'0 0.0
2017-Sep-18 16:30N 35°22' E 024°29'0 0.0
2017-Sep-18 15:58N 35°22' E 024°29'0 0.0
2017-Sep-18 15:28N 35°22' E 024°29'0 0.0
2017-Sep-18 14:58N 35°22' E 024°29'0 0.0
2017-Sep-18 14:29N 35°22' E 024°29'0 0.0
2017-Sep-18 13:59N 35°22' E 024°29'0 0.0
2017-Sep-18 13:29N 35°22' E 024°29'0 0.0
2017-Sep-18 13:00N 35°22' E 024°29'0 0.0
2017-Sep-18 12:30N 35°22' E 024°29'0 0.0
2017-Sep-18 12:00N 35°22' E 024°29'0 0.0
2017-Sep-18 11:28N 35°22' E 024°29'0 0.0
2017-Sep-18 10:58N 35°22' E 024°29'0 0.0
2017-Sep-18 10:28N 35°22' E 024°29'0 0.0
2017-Sep-18 09:59N 35°22' E 024°29'0 0.0
2017-Sep-18 09:29N 35°22' E 024°29'0 0.0
2017-Sep-18 08:59N 35°22' E 024°29'0 0.0
2017-Sep-18 08:30N 35°22' E 024°29'0 0.0
2017-Sep-18 08:00N 35°22' E 024°29'0 0.0
2017-Sep-18 07:30N 35°22' E 024°29'0 0.0
2017-Sep-18 06:58N 35°22' E 024°29'0 0.0
2017-Sep-18 06:28N 35°22' E 024°29'0 0.0
2017-Sep-18 05:58N 35°22' E 024°29'0 0.0
2017-Sep-18 05:29N 35°22' E 024°29'0 0.0
2017-Sep-18 04:59N 35°22' E 024°29'0 0.0
2017-Sep-18 04:29N 35°22' E 024°29'0 0.1
2017-Sep-18 04:00N 35°22' E 024°29'4 7.4
2017-Sep-18 03:30N 35°25' E 024°32'101 3.7
2017-Sep-17 00:19N 36°59' E 025°17'3 9.8
2017-Sep-17 00:01N 37°02' E 025°18'5 9.7
2017-Sep-16 23:30N 37°07' E 025°19'5 9.2
2017-Sep-16 23:00N 37°12' E 025°18'5 9.1
2017-Sep-16 22:30N 37°16' E 025°18'4 8.9
2017-Sep-16 22:00N 37°21' E 025°18'5 9.1
2017-Sep-16 21:30N 37°25' E 025°17'3 5.1
2017-Sep-16 21:00N 37°27' E 025°20'0 0.1
2017-Sep-16 20:25N 37°27' E 025°20'0 0.0
2017-Sep-16 19:55N 37°27' E 025°20'0 0.0
2017-Sep-16 19:28N 37°27' E 025°20'0 0.0
2017-Sep-16 18:41N 37°27' E 025°20'0 0.0
2017-Sep-16 18:26N 37°27' E 025°20'0 0.0
2017-Sep-16 17:36N 37°27' E 025°20'0 0.0
2017-Sep-16 17:06N 37°27' E 025°20'0 0.0
2017-Sep-16 16:54N 37°27' E 025°20'0 0.0
2017-Sep-16 16:27N 37°27' E 025°20'0 0.0
2017-Sep-16 15:52N 37°27' E 025°20'0 0.0
2017-Sep-16 15:28N 37°27' E 025°20'0 0.0
2017-Sep-16 14:58N 37°27' E 025°20'0 0.0
2017-Sep-16 14:29N 37°27' E 025°20'0 0.0
2017-Sep-16 13:59N 37°27' E 025°20'0 0.0
2017-Sep-16 13:29N 37°27' E 025°20'0 0.0
2017-Sep-16 12:54N 37°27' E 025°20'0 0.0
2017-Sep-16 12:30N 37°27' E 025°20'0 0.0
2017-Sep-16 11:57N 37°27' E 025°20'0 0.0
2017-Sep-16 11:28N 37°27' E 025°20'0 0.0
2017-Sep-16 10:52N 37°27' E 025°20'0 0.0
2017-Sep-16 10:25N 37°27' E 025°20'0 0.0
2017-Sep-16 09:56N 37°27' E 025°20'0 0.0
2017-Sep-16 09:29N 37°27' E 025°20'0 0.0
2017-Sep-16 08:59N 37°27' E 025°20'0 0.0
2017-Sep-16 08:30N 37°27' E 025°20'0 0.0
2017-Sep-16 08:00N 37°27' E 025°20'0 0.0
2017-Sep-16 07:30N 37°27' E 025°20'0 0.0
2017-Sep-16 06:55N 37°27' E 025°20'0 0.0
2017-Sep-16 06:25N 37°27' E 025°20'0 0.0
2017-Sep-16 04:23N 37°27' E 025°20'1 1.3
2017-Sep-16 04:00N 37°27' E 025°19'4 7.9
2017-Sep-16 03:30N 37°28' E 025°14'4 8.3
2017-Sep-16 03:00N 37°29' E 025°09'5 9.2
2017-Sep-16 02:30N 37°30' E 025°03'9 9.1
2017-Sep-16 01:34N 37°33' E 024°53'1 9.0
2017-Sep-16 01:25N 37°33' E 024°51'4 8.9
2017-Sep-16 01:00N 37°34' E 024°47'40 4.1
2017-Sep-15 15:20N 37°38' E 023°57'3 9.0
2017-Sep-15 15:00N 37°40' E 023°54'4 8.9
2017-Sep-15 14:30N 37°43' E 023°50'4 8.9
2017-Sep-15 14:00N 37°47' E 023°47'5 9.1
2017-Sep-15 13:30N 37°51' E 023°43'5 9.3
2017-Sep-15 13:00N 37°55' E 023°40'2 3.5
2017-Sep-15 12:30N 37°56' E 023°39'0 0.0
2017-Sep-15 12:00N 37°56' E 023°39'0 0.0
2017-Sep-15 11:30N 37°56' E 023°39'0 0.0
2017-Sep-15 10:58N 37°56' E 023°39'0 0.0
2017-Sep-15 10:28N 37°56' E 023°39'0 0.0
2017-Sep-15 09:58N 37°56' E 023°39'0 0.0
2017-Sep-15 09:29N 37°56' E 023°39'0 0.0
2017-Sep-15 08:59N 37°56' E 023°39'0 0.0
2017-Sep-15 08:29N 37°56' E 023°39'0 0.0
2017-Sep-15 08:00N 37°56' E 023°39'0 0.0
2017-Sep-15 07:30N 37°56' E 023°39'0 0.0
2017-Sep-15 07:00N 37°56' E 023°39'0 0.0
2017-Sep-15 06:28N 37°56' E 023°39'0 0.0
2017-Sep-15 05:58N 37°56' E 023°39'0 0.0
2017-Sep-15 05:28N 37°56' E 023°39'0 0.0
2017-Sep-15 04:59N 37°56' E 023°39'0 0.0
2017-Sep-15 04:29N 37°56' E 023°39'0 0.0
2017-Sep-15 03:59N 37°56' E 023°39'0 0.0
2017-Sep-15 03:30N 37°56' E 023°39'0 0.0
2017-Sep-15 02:57N 37°56' E 023°39'0 0.0
2017-Sep-15 02:30N 37°56' E 023°39'0 0.0
2017-Sep-15 01:58N 37°56' E 023°39'0 0.0
2017-Sep-15 01:25N 37°56' E 023°39'0 0.0
2017-Sep-15 00:58N 37°56' E 023°39'0 0.0
2017-Sep-15 00:29N 37°56' E 023°39'0 0.0
2017-Sep-14 23:59N 37°56' E 023°39'0 0.0
2017-Sep-14 23:29N 37°56' E 023°39'0 0.0
2017-Sep-14 23:00N 37°56' E 023°39'0 0.0
2017-Sep-14 22:30N 37°56' E 023°39'0 0.0
2017-Sep-14 22:00N 37°56' E 023°39'0 0.0
2017-Sep-14 21:28N 37°56' E 023°39'0 0.0
2017-Sep-14 20:58N 37°56' E 023°39'0 0.0
2017-Sep-14 20:28N 37°56' E 023°39'0 0.0
2017-Sep-14 19:59N 37°56' E 023°39'0 0.0
2017-Sep-14 19:30N 37°56' E 023°39'1 2.6
2017-Sep-14 19:00N 37°55' E 023°39'5 9.6
2017-Sep-14 18:31N 37°50' E 023°37'5 9.4
2017-Sep-14 18:00N 37°46' E 023°35'5 9.6
2017-Sep-14 17:30N 37°41' E 023°32'5 9.6
2017-Sep-14 17:00N 37°37' E 023°29'5 9.5
2017-Sep-14 16:30N 37°33' E 023°26'3 5.1
2017-Sep-14 15:55N 37°30' E 023°27'0 0.0
2017-Sep-14 14:25N 37°30' E 023°27'0 0.0
2017-Sep-14 13:56N 37°30' E 023°27'0 0.0
2017-Sep-14 13:02N 37°30' E 023°27'0 0.0
2017-Sep-14 10:43N 37°30' E 023°27'0 0.0
2017-Sep-14 10:30N 37°30' E 023°27'0 0.4
2017-Sep-14 09:59N 37°30' E 023°27'1 2.0
2017-Sep-14 09:22N 37°30' E 023°29'0 0.2
2017-Sep-14 09:00N 37°30' E 023°29'  
2017-Sep-11 15:40N 35°29' E 024°20'1 8.7
2017-Sep-11 15:30N 35°28' E 024°21'4 8.6
2017-Sep-11 15:00N 35°26' E 024°25'4 8.5
2017-Sep-11 14:30N 35°23' E 024°29'1 1.0
2017-Sep-11 13:59N 35°22' E 024°29'0 0.0
2017-Sep-11 13:23N 35°22' E 024°29'0 0.0
2017-Sep-11 12:59N 35°22' E 024°29'0 0.0
2017-Sep-11 12:30N 35°22' E 024°29'0 0.0
2017-Sep-11 12:00N 35°22' E 024°29'0 0.0
2017-Sep-11 11:30N 35°22' E 024°29'0 0.0
2017-Sep-11 10:58N 35°22' E 024°29'0 0.0
2017-Sep-11 10:28N 35°22' E 024°29'0 0.0
2017-Sep-11 09:59N 35°22' E 024°29'0 0.0
2017-Sep-11 09:29N 35°22' E 024°29'0 0.0
2017-Sep-11 08:59N 35°22' E 024°29'0 0.0
2017-Sep-11 08:30N 35°22' E 024°29'0 0.0
2017-Sep-11 08:00N 35°22' E 024°29'0 0.0
2017-Sep-11 07:30N 35°22' E 024°29'0 0.0
2017-Sep-11 07:01N 35°22' E 024°29'0 0.0
2017-Sep-11 06:28N 35°22' E 024°29'0 0.0
2017-Sep-11 05:58N 35°22' E 024°29'0 0.0
2017-Sep-11 05:29N 35°22' E 024°29'0 0.0
2017-Sep-11 04:59N 35°22' E 024°29'0 0.0
2017-Sep-11 04:29N 35°22' E 024°29'2 4.2
2017-Sep-11 04:00N 35°24' E 024°31'4 7.6
2017-Sep-11 03:30N 35°27' E 024°33'99 3.7
2017-Sep-10 00:38N 36°59' E 025°17'1 9.8
2017-Sep-10 00:30N 37°00' E 025°17'5 9.6
2017-Sep-10 00:00N 37°05' E 025°18'5 9.3
2017-Sep-09 23:30N 37°10' E 025°19'5 9.8
2017-Sep-09 23:00N 37°15' E 025°18'5 9.7
2017-Sep-09 22:30N 37°20' E 025°18'5 9.4
2017-Sep-09 22:00N 37°24' E 025°17'3 6.5
2017-Sep-09 21:30N 37°27' E 025°20'0 0.1
2017-Sep-09 21:00N 37°27' E 025°20'0 0.0
2017-Sep-09 20:27N 37°27' E 025°20'0 0.0
2017-Sep-09 19:28N 37°27' E 025°20'0 0.0
2017-Sep-09 18:58N 37°27' E 025°20'0 0.0
2017-Sep-09 18:29N 37°27' E 025°20'0 0.0
2017-Sep-09 17:59N 37°27' E 025°20'0 0.0
2017-Sep-09 17:29N 37°27' E 025°20'0 0.0
2017-Sep-09 16:48N 37°27' E 025°20'0 0.0
2017-Sep-09 16:21N 37°27' E 025°20'0 0.0
2017-Sep-09 15:57N 37°27' E 025°20'0 0.0
2017-Sep-09 15:28N 37°27' E 025°20'0 0.0
2017-Sep-09 14:10N 37°27' E 025°20'0 0.0
2017-Sep-09 13:59N 37°27' E 025°20'0 0.0
2017-Sep-09 13:26N 37°27' E 025°20'0 0.0
2017-Sep-09 12:59N 37°27' E 025°20'0 0.0
2017-Sep-09 12:30N 37°27' E 025°20'0 0.0
2017-Sep-09 11:54N 37°27' E 025°20'0 0.0
2017-Sep-09 11:27N 37°27' E 025°20'0 0.0
2017-Sep-09 10:52N 37°27' E 025°20'0 0.0
2017-Sep-09 10:28N 37°27' E 025°20'0 0.0
2017-Sep-09 09:52N 37°27' E 025°20'0 0.0
2017-Sep-09 09:29N 37°27' E 025°20'0 0.0
2017-Sep-09 08:59N 37°27' E 025°20'0 0.0
2017-Sep-09 08:26N 37°27' E 025°20'0 0.0
2017-Sep-09 07:51N 37°27' E 025°20'0 0.0
2017-Sep-09 07:30N 37°27' E 025°20'0 0.0
2017-Sep-09 07:00N 37°27' E 025°20'0 0.0
2017-Sep-09 06:28N 37°27' E 025°20'0 0.0
2017-Sep-09 05:55N 37°27' E 025°20'0 0.0
2017-Sep-09 05:28N 37°27' E 025°20'0 0.0
2017-Sep-09 04:59N 37°27' E 025°20'0 0.0
2017-Sep-09 04:30N 37°27' E 025°20'0 0.5
2017-Sep-09 04:00N 37°27' E 025°19'4 8.2
2017-Sep-09 03:30N 37°28' E 025°14'4 7.9
2017-Sep-09 03:00N 37°29' E 025°10'4 8.5
2017-Sep-09 02:30N 37°30' E 025°04'5 9.1
2017-Sep-09 01:56N 37°31' E 024°58'5 9.5
2017-Sep-09 01:22N 37°33' E 024°51'3 9.2
2017-Sep-09 01:00N 37°34' E 024°47'  
Track history (hours):
 
Tides and Currents Weather Stations Pressure Air Temp Water Temp Dewpoint Dewpoint Depression Visibility Wind Speed Wind Dir Waves Ship Positions

Harmony G

Last reported at 2017-Sep-18 17:54 UTC. Time now 2017-Sep-19 11:50 UTC.
Position N 35°27' E 024°24'.

Length 53 m; draft 2.8 m.

Type: Passenger vessel. MMSI: 239780000.

Date/timePositionNaut miles runAvg speedWind from/ knotsBaromVisibWave heightAir tempDewpointWater temp
2017-Sep-18 17:54N 35°27' E 024°24'4 9.1
2017-Sep-18 17:30N 35°24' E 024°28'2 4.5
2017-Sep-18 17:00N 35°22' E 024°29'0 0.0
2017-Sep-18 16:30N 35°22' E 024°29'0 0.0
2017-Sep-18 15:58N 35°22' E 024°29'0 0.0
2017-Sep-18 15:28N 35°22' E 024°29'0 0.0
2017-Sep-18 14:58N 35°22' E 024°29'0 0.0
2017-Sep-18 14:29N 35°22' E 024°29'0 0.0
2017-Sep-18 13:59N 35°22' E 024°29'0 0.0
2017-Sep-18 13:29N 35°22' E 024°29'0 0.0
2017-Sep-18 13:00N 35°22' E 024°29'0 0.0
2017-Sep-18 12:30N 35°22' E 024°29'0 0.0
2017-Sep-18 12:00N 35°22' E 024°29'0 0.0
2017-Sep-18 11:28N 35°22' E 024°29'0 0.0
2017-Sep-18 10:58N 35°22' E 024°29'0 0.0
2017-Sep-18 10:28N 35°22' E 024°29'0 0.0
2017-Sep-18 09:59N 35°22' E 024°29'0 0.0
2017-Sep-18 09:29N 35°22' E 024°29'0 0.0
2017-Sep-18 08:59N 35°22' E 024°29'0 0.0
2017-Sep-18 08:30N 35°22' E 024°29'0 0.0
2017-Sep-18 08:00N 35°22' E 024°29'0 0.0
2017-Sep-18 07:30N 35°22' E 024°29'0 0.0
2017-Sep-18 06:58N 35°22' E 024°29'0 0.0
2017-Sep-18 06:28N 35°22' E 024°29'0 0.0
2017-Sep-18 05:58N 35°22' E 024°29'0 0.0
2017-Sep-18 05:29N 35°22' E 024°29'0 0.0
2017-Sep-18 04:59N 35°22' E 024°29'0 0.0
2017-Sep-18 04:29N 35°22' E 024°29'0 0.1
2017-Sep-18 04:00N 35°22' E 024°29'4 7.4
2017-Sep-18 03:30N 35°25' E 024°32'101 3.7
2017-Sep-17 00:19N 36°59' E 025°17'3 9.8
2017-Sep-17 00:01N 37°02' E 025°18'5 9.7
2017-Sep-16 23:30N 37°07' E 025°19'5 9.2
2017-Sep-16 23:00N 37°12' E 025°18'5 9.1
2017-Sep-16 22:30N 37°16' E 025°18'4 8.9
2017-Sep-16 22:00N 37°21' E 025°18'5 9.1
2017-Sep-16 21:30N 37°25' E 025°17'3 5.1
2017-Sep-16 21:00N 37°27' E 025°20'0 0.1
2017-Sep-16 20:25N 37°27' E 025°20'0 0.0
2017-Sep-16 19:55N 37°27' E 025°20'0 0.0
2017-Sep-16 19:28N 37°27' E 025°20'0 0.0
2017-Sep-16 18:41N 37°27' E 025°20'0 0.0
2017-Sep-16 18:26N 37°27' E 025°20'0 0.0
2017-Sep-16 17:36N 37°27' E 025°20'0 0.0
2017-Sep-16 17:06N 37°27' E 025°20'0 0.0
2017-Sep-16 16:54N 37°27' E 025°20'0 0.0
2017-Sep-16 16:27N 37°27' E 025°20'0 0.0
2017-Sep-16 15:52N 37°27' E 025°20'0 0.0
2017-Sep-16 15:28N 37°27' E 025°20'0 0.0
2017-Sep-16 14:58N 37°27' E 025°20'0 0.0
2017-Sep-16 14:29N 37°27' E 025°20'0 0.0
2017-Sep-16 13:59N 37°27' E 025°20'0 0.0
2017-Sep-16 13:29N 37°27' E 025°20'0 0.0
2017-Sep-16 12:54N 37°27' E 025°20'0 0.0
2017-Sep-16 12:30N 37°27' E 025°20'0 0.0
2017-Sep-16 11:57N 37°27' E 025°20'0 0.0
2017-Sep-16 11:28N 37°27' E 025°20'0 0.0
2017-Sep-16 10:52N 37°27' E 025°20'0 0.0
2017-Sep-16 10:25N 37°27' E 025°20'0 0.0
2017-Sep-16 09:56N 37°27' E 025°20'0 0.0
2017-Sep-16 09:29N 37°27' E 025°20'0 0.0
2017-Sep-16 08:59N 37°27' E 025°20'0 0.0
2017-Sep-16 08:30N 37°27' E 025°20'0 0.0
2017-Sep-16 08:00N 37°27' E 025°20'0 0.0
2017-Sep-16 07:30N 37°27' E 025°20'0 0.0
2017-Sep-16 06:55N 37°27' E 025°20'0 0.0
2017-Sep-16 06:25N 37°27' E 025°20'0 0.0
2017-Sep-16 04:23N 37°27' E 025°20'1 1.3
2017-Sep-16 04:00N 37°27' E 025°19'4 7.9
2017-Sep-16 03:30N 37°28' E 025°14'4 8.3
2017-Sep-16 03:00N 37°29' E 025°09'5 9.2
2017-Sep-16 02:30N 37°30' E 025°03'9 9.1
2017-Sep-16 01:34N 37°33' E 024°53'1 9.0
2017-Sep-16 01:25N 37°33' E 024°51'4 8.9
2017-Sep-16 01:00N 37°34' E 024°47'40 4.1
2017-Sep-15 15:20N 37°38' E 023°57'3 9.0
2017-Sep-15 15:00N 37°40' E 023°54'4 8.9
2017-Sep-15 14:30N 37°43' E 023°50'4 8.9
2017-Sep-15 14:00N 37°47' E 023°47'5 9.1
2017-Sep-15 13:30N 37°51' E 023°43'5 9.3
2017-Sep-15 13:00N 37°55' E 023°40'2 3.5
2017-Sep-15 12:30N 37°56' E 023°39'0 0.0
2017-Sep-15 12:00N 37°56' E 023°39'0 0.0
2017-Sep-15 11:30N 37°56' E 023°39'0 0.0
2017-Sep-15 10:58N 37°56' E 023°39'0 0.0
2017-Sep-15 10:28N 37°56' E 023°39'0 0.0
2017-Sep-15 09:58N 37°56' E 023°39'0 0.0
2017-Sep-15 09:29N 37°56' E 023°39'0 0.0
2017-Sep-15 08:59N 37°56' E 023°39'0 0.0
2017-Sep-15 08:29N 37°56' E 023°39'0 0.0
2017-Sep-15 08:00N 37°56' E 023°39'0 0.0
2017-Sep-15 07:30N 37°56' E 023°39'0 0.0
2017-Sep-15 07:00N 37°56' E 023°39'0 0.0
2017-Sep-15 06:28N 37°56' E 023°39'0 0.0
2017-Sep-15 05:58N 37°56' E 023°39'0 0.0
2017-Sep-15 05:28N 37°56' E 023°39'0 0.0
2017-Sep-15 04:59N 37°56' E 023°39'0 0.0
2017-Sep-15 04:29N 37°56' E 023°39'0 0.0
2017-Sep-15 03:59N 37°56' E 023°39'0 0.0
2017-Sep-15 03:30N 37°56' E 023°39'0 0.0
2017-Sep-15 02:57N 37°56' E 023°39'0 0.0
2017-Sep-15 02:30N 37°56' E 023°39'0 0.0
2017-Sep-15 01:58N 37°56' E 023°39'0 0.0
2017-Sep-15 01:25N 37°56' E 023°39'0 0.0
2017-Sep-15 00:58N 37°56' E 023°39'0 0.0
2017-Sep-15 00:29N 37°56' E 023°39'0 0.0
2017-Sep-14 23:59N 37°56' E 023°39'0 0.0
2017-Sep-14 23:29N 37°56' E 023°39'0 0.0
2017-Sep-14 23:00N 37°56' E 023°39'0 0.0
2017-Sep-14 22:30N 37°56' E 023°39'0 0.0
2017-Sep-14 22:00N 37°56' E 023°39'0 0.0
2017-Sep-14 21:28N 37°56' E 023°39'0 0.0
2017-Sep-14 20:58N 37°56' E 023°39'0 0.0
2017-Sep-14 20:28N 37°56' E 023°39'0 0.0
2017-Sep-14 19:59N 37°56' E 023°39'0 0.0
2017-Sep-14 19:30N 37°56' E 023°39'1 2.6
2017-Sep-14 19:00N 37°55' E 023°39'5 9.6
2017-Sep-14 18:31N 37°50' E 023°37'5 9.4
2017-Sep-14 18:00N 37°46' E 023°35'5 9.6
2017-Sep-14 17:30N 37°41' E 023°32'5 9.6
2017-Sep-14 17:00N 37°37' E 023°29'5 9.5
2017-Sep-14 16:30N 37°33' E 023°26'3 5.1
2017-Sep-14 15:55N 37°30' E 023°27'0 0.0
2017-Sep-14 14:25N 37°30' E 023°27'0 0.0
2017-Sep-14 13:56N 37°30' E 023°27'0 0.0
2017-Sep-14 13:02N 37°30' E 023°27'0 0.0
2017-Sep-14 10:43N 37°30' E 023°27'0 0.0
2017-Sep-14 10:30N 37°30' E 023°27'0 0.4
2017-Sep-14 09:59N 37°30' E 023°27'1 2.0
2017-Sep-14 09:22N 37°30' E 023°29'0 0.2
2017-Sep-14 09:00N 37°30' E 023°29'  
2017-Sep-11 15:40N 35°29' E 024°20'1 8.7
2017-Sep-11 15:30N 35°28' E 024°21'4 8.6
2017-Sep-11 15:00N 35°26' E 024°25'4 8.5
2017-Sep-11 14:30N 35°23' E 024°29'1 1.0
2017-Sep-11 13:59N 35°22' E 024°29'0 0.0
2017-Sep-11 13:23N 35°22' E 024°29'0 0.0
2017-Sep-11 12:59N 35°22' E 024°29'0 0.0
2017-Sep-11 12:30N 35°22' E 024°29'0 0.0
2017-Sep-11 12:00N 35°22' E 024°29'0 0.0
2017-Sep-11 11:30N 35°22' E 024°29'0 0.0
2017-Sep-11 10:58N 35°22' E 024°29'0 0.0
2017-Sep-11 10:28N 35°22' E 024°29'0 0.0
2017-Sep-11 09:59N 35°22' E 024°29'0 0.0
2017-Sep-11 09:29N 35°22' E 024°29'0 0.0
2017-Sep-11 08:59N 35°22' E 024°29'0 0.0
2017-Sep-11 08:30N 35°22' E 024°29'0 0.0
2017-Sep-11 08:00N 35°22' E 024°29'0 0.0
2017-Sep-11 07:30N 35°22' E 024°29'0 0.0
2017-Sep-11 07:01N 35°22' E 024°29'0 0.0
2017-Sep-11 06:28N 35°22' E 024°29'0 0.0
2017-Sep-11 05:58N 35°22' E 024°29'0 0.0
2017-Sep-11 05:29N 35°22' E 024°29'0 0.0
2017-Sep-11 04:59N 35°22' E 024°29'0 0.0
2017-Sep-11 04:29N 35°22' E 024°29'2 4.2
2017-Sep-11 04:00N 35°24' E 024°31'4 7.6
2017-Sep-11 03:30N 35°27' E 024°33'99 3.7
2017-Sep-10 00:38N 36°59' E 025°17'1 9.8
2017-Sep-10 00:30N 37°00' E 025°17'5 9.6
2017-Sep-10 00:00N 37°05' E 025°18'5 9.3
2017-Sep-09 23:30N 37°10' E 025°19'5 9.8
2017-Sep-09 23:00N 37°15' E 025°18'5 9.7
2017-Sep-09 22:30N 37°20' E 025°18'5 9.4
2017-Sep-09 22:00N 37°24' E 025°17'3 6.5
2017-Sep-09 21:30N 37°27' E 025°20'0 0.1
2017-Sep-09 21:00N 37°27' E 025°20'0 0.0
2017-Sep-09 20:27N 37°27' E 025°20'0 0.0
2017-Sep-09 19:28N 37°27' E 025°20'0 0.0
2017-Sep-09 18:58N 37°27' E 025°20'0 0.0
2017-Sep-09 18:29N 37°27' E 025°20'0 0.0
2017-Sep-09 17:59N 37°27' E 025°20'0 0.0
2017-Sep-09 17:29N 37°27' E 025°20'0 0.0
2017-Sep-09 16:48N 37°27' E 025°20'0 0.0
2017-Sep-09 16:21N 37°27' E 025°20'0 0.0
2017-Sep-09 15:57N 37°27' E 025°20'0 0.0
2017-Sep-09 15:28N 37°27' E 025°20'0 0.0
2017-Sep-09 14:10N 37°27' E 025°20'0 0.0
2017-Sep-09 13:59N 37°27' E 025°20'0 0.0
2017-Sep-09 13:26N 37°27' E 025°20'0 0.0
2017-Sep-09 12:59N 37°27' E 025°20'0 0.0
2017-Sep-09 12:30N 37°27' E 025°20'0 0.0
2017-Sep-09 11:54N 37°27' E 025°20'0 0.0
2017-Sep-09 11:27N 37°27' E 025°20'0 0.0
2017-Sep-09 10:52N 37°27' E 025°20'0 0.0
2017-Sep-09 10:28N 37°27' E 025°20'0 0.0
2017-Sep-09 09:52N 37°27' E 025°20'0 0.0
2017-Sep-09 09:29N 37°27' E 025°20'0 0.0
2017-Sep-09 08:59N 37°27' E 025°20'0 0.0
2017-Sep-09 08:26N 37°27' E 025°20'0 0.0
2017-Sep-09 07:51N 37°27' E 025°20'0 0.0
2017-Sep-09 07:30N 37°27' E 025°20'0 0.0
2017-Sep-09 07:00N 37°27' E 025°20'0 0.0
2017-Sep-09 06:28N 37°27' E 025°20'0 0.0
2017-Sep-09 05:55N 37°27' E 025°20'0 0.0
2017-Sep-09 05:28N 37°27' E 025°20'0 0.0
2017-Sep-09 04:59N 37°27' E 025°20'0 0.0
2017-Sep-09 04:30N 37°27' E 025°20'0 0.5
2017-Sep-09 04:00N 37°27' E 025°19'4 8.2
2017-Sep-09 03:30N 37°28' E 025°14'4 7.9
2017-Sep-09 03:00N 37°29' E 025°10'4 8.5
2017-Sep-09 02:30N 37°30' E 025°04'5 9.1
2017-Sep-09 01:56N 37°31' E 024°58'5 9.5
2017-Sep-09 01:22N 37°33' E 024°51'3 9.2
2017-Sep-09 01:00N 37°34' E 024°47'  

Dump ship's entire track history